Calumet City, Illinois
Current Conditions -  °F | °C
As of 12:35 AM on Wednesday 26 Nov 2014 (Local Time) from KGYY Reporting Station
Overcast Overcast  
Wind Chill: 25°   Ceiling: 1300
Heat Index: 25°   Visibility: 10mi
Dew Point: 20°   Wind: 3mph
Humidity: 80%   Direction: 170°S
Pressure: 30.19"   Gusts: NA
Location:  41.62°N, 87.53°W
Report Text: KGYY 260635Z AUTO 17003KT 10SM OVC013 M04/M07 A3019 RMK AO2 T10381068
Loading
Personal Weather Stations






























Interactive Weather Map New forecast layout! Learn more

10-Day Weather Forecast

Advertisements
Track Severe Weather on mobile